createdAt,value
2018-01-21T00:01:15.256Z,99112.23
2018-01-21T00:03:42.952Z,99116.03
2018-01-21T00:06:10.530Z,99124.81
2018-01-21T00:08:37.981Z,99138.25
2018-01-21T00:11:05.440Z,99136.52
2018-01-21T00:13:32.893Z,99148.41
2018-01-21T00:16:00.632Z,99157.44
2018-01-21T00:18:28.089Z,99151.52
2018-01-21T00:20:55.524Z,99162.92
2018-01-21T00:23:22.981Z,99167.32
2018-01-21T00:25:50.414Z,99165.94
2018-01-21T00:28:17.914Z,99178.87
2018-01-21T00:30:45.365Z,99190.45
2018-01-21T00:33:12.841Z,99193.16
2018-01-21T00:35:40.303Z,99201.05
2018-01-21T00:38:07.743Z,99198.25
2018-01-21T00:40:35.396Z,99197.55
2018-01-21T00:43:02.844Z,99203.17
2018-01-21T00:45:30.273Z,99210.52
2018-01-21T00:47:57.749Z,99217.00
2018-01-21T00:50:25.193Z,99231.09
2018-01-21T00:52:52.737Z,99230.98
2018-01-21T00:55:20.194Z,99235.69
2018-01-21T00:57:47.633Z,99240.85
2018-01-21T01:00:15.112Z,99238.59
2018-01-21T01:02:42.549Z,99234.45
2018-01-21T01:05:10.025Z,99249.78
2018-01-21T01:07:37.454Z,99260.23
2018-01-21T01:10:04.922Z,99270.89
2018-01-21T01:12:32.386Z,99277.70
2018-01-21T01:14:59.825Z,99282.70
2018-01-21T01:17:27.302Z,99295.29
2018-01-21T01:19:54.737Z,99299.34
2018-01-21T01:22:22.197Z,99300.18
2018-01-21T01:24:49.652Z,99308.37
2018-01-21T01:27:17.084Z,99314.45
2018-01-21T01:29:44.540Z,99321.26
2018-01-21T01:32:17.574Z,99324.36
2018-01-21T01:34:45.173Z,99333.06
2018-01-21T01:37:12.605Z,99340.41
2018-01-21T01:39:40.064Z,99344.66
2018-01-21T01:42:07.517Z,99352.97
2018-01-21T01:44:34.960Z,99358.12
2018-01-21T01:47:02.657Z,99368.67
2018-01-21T01:49:30.106Z,99382.39
2018-01-21T01:51:57.640Z,99390.61
2018-01-21T01:54:25.093Z,99387.59
2018-01-21T01:56:52.528Z,99395.89
2018-01-21T01:59:20.010Z,99402.06
2018-01-21T02:01:47.456Z,99403.36
2018-01-21T02:04:14.895Z,99417.23
2018-01-21T02:06:42.344Z,99422.45
2018-01-21T02:09:09.788Z,99440.12
2018-01-21T02:11:37.274Z,99439.48
2018-01-21T02:14:04.713Z,99448.75
2018-01-21T02:16:32.149Z,99448.39
2018-01-21T02:18:59.604Z,99454.19
2018-01-21T02:21:27.070Z,99466.86
2018-01-21T02:23:54.737Z,99475.84
2018-01-21T02:26:22.169Z,99465.88
2018-01-21T02:28:49.633Z,99476.38
2018-01-21T02:31:17.089Z,99477.46
2018-01-21T02:33:44.521Z,99487.58
2018-01-21T02:36:12.307Z,99493.88
2018-01-21T02:38:39.748Z,99491.23
2018-01-21T02:41:07.203Z,99488.82
2018-01-21T02:43:34.662Z,99487.13
2018-01-21T02:46:02.570Z,99493.75
2018-01-21T02:48:30.201Z,99496.16
2018-01-21T02:50:57.636Z,99494.55
2018-01-21T02:53:25.070Z,99510.43
2018-01-21T02:55:52.529Z,99515.34
2018-01-21T02:58:19.960Z,99528.53
2018-01-21T03:00:47.444Z,99527.27
2018-01-21T03:03:14.881Z,99537.81
2018-01-21T03:05:42.312Z,99542.55
2018-01-21T03:08:09.768Z,99548.15
2018-01-21T03:10:37.212Z,99553.73
2018-01-21T03:13:04.870Z,99559.02
2018-01-21T03:15:32.305Z,99567.98
2018-01-21T03:17:59.737Z,99579.41
2018-01-21T03:20:27.204Z,99582.64
2018-01-21T03:22:55.240Z,99582.66
2018-01-21T03:25:22.865Z,99594.72
2018-01-21T03:27:50.300Z,99606.84
2018-01-21T03:30:17.732Z,99605.86
2018-01-21T03:32:45.189Z,99621.53
2018-01-21T03:35:12.620Z,99625.19
2018-01-21T03:37:40.090Z,99634.78
2018-01-21T03:40:07.524Z,99644.74
2018-01-21T03:42:34.958Z,99648.73
2018-01-21T03:45:02.415Z,99645.61
2018-01-21T03:47:29.873Z,99661.01
2018-01-21T03:49:57.328Z,99659.05
2018-01-21T03:52:24.797Z,99667.34
2018-01-21T03:54:52.229Z,99678.48
2018-01-21T03:57:19.692Z,99677.47
2018-01-21T03:59:47.133Z,99679.32
2018-01-21T04:02:14.761Z,99681.08
2018-01-21T04:04:42.197Z,99687.52
2018-01-21T04:07:09.630Z,99692.26
2018-01-21T04:09:37.089Z,99696.19
2018-01-21T04:12:04.522Z,99709.59
2018-01-21T04:14:32.098Z,99707.08
2018-01-21T04:16:59.712Z,99704.38
2018-01-21T04:19:27.158Z,99704.96
2018-01-21T04:21:54.615Z,99712.38
2018-01-21T04:24:22.168Z,99712.23
2018-01-21T04:26:49.892Z,99726.87
2018-01-21T04:29:17.321Z,99726.81
2018-01-21T04:31:44.753Z,99733.34
2018-01-21T04:34:12.228Z,99736.02
2018-01-21T04:36:39.687Z,99749.52
2018-01-21T04:39:07.489Z,99759.05
2018-01-21T04:41:35.228Z,99767.05
2018-01-21T04:44:02.661Z,99774.52
2018-01-21T04:46:30.133Z,99779.38
2018-01-21T04:48:57.572Z,99778.30
2018-01-21T04:51:25.249Z,99782.20
2018-01-21T04:53:52.688Z,99789.95
2018-01-21T04:56:20.485Z,99795.68
2018-01-21T04:58:47.936Z,99799.97
2018-01-21T05:01:15.372Z,99803.45
2018-01-21T05:03:43.173Z,99810.42
2018-01-21T05:06:10.608Z,99816.14
2018-01-21T05:08:38.060Z,99823.16
2018-01-21T05:11:05.548Z,99833.77
2018-01-21T05:13:32.981Z,99842.48
2018-01-21T05:16:00.672Z,99838.93
2018-01-21T05:18:28.122Z,99842.47
2018-01-21T05:20:55.564Z,99843.76
2018-01-21T05:23:23.020Z,99851.33
2018-01-21T05:25:50.456Z,99859.66
2018-01-21T05:28:17.920Z,99866.55
2018-01-21T05:30:45.353Z,99865.69
2018-01-21T05:33:12.788Z,99881.11
2018-01-21T05:35:40.244Z,99882.36
2018-01-21T05:38:07.684Z,99885.53
2018-01-21T05:40:35.297Z,99888.95
2018-01-21T05:43:02.734Z,99898.23
2018-01-21T05:45:30.194Z,99899.20
2018-01-21T05:47:57.646Z,99907.91
2018-01-21T05:50:25.076Z,99916.22
2018-01-21T05:52:52.569Z,99922.34
2018-01-21T05:55:20.036Z,99921.55
2018-01-21T05:57:47.471Z,99926.79
2018-01-21T06:00:14.929Z,99930.73
2018-01-21T06:02:42.366Z,99934.08
2018-01-21T06:05:09.848Z,99944.59
2018-01-21T06:07:37.294Z,99956.11
2018-01-21T06:10:04.730Z,99959.59
2018-01-21T06:12:32.180Z,99956.52
2018-01-21T06:14:59.620Z,99969.48
2018-01-21T06:17:27.481Z,99975.14
2018-01-21T06:19:54.941Z,99980.49
2018-01-21T06:22:22.368Z,99994.97
2018-01-21T06:24:49.824Z,100000.27
2018-01-21T06:27:17.262Z,100004.68
2018-01-21T06:29:44.737Z,100002.87
2018-01-21T06:32:12.205Z,100002.01
2018-01-21T06:34:39.643Z,100006.83
2018-01-21T06:37:07.115Z,100010.30
2018-01-21T06:39:34.696Z,100018.26
2018-01-21T06:42:02.366Z,100027.95
2018-01-21T06:44:29.816Z,100028.47
2018-01-21T06:46:57.252Z,100031.58
2018-01-21T06:49:24.724Z,100035.56
2018-01-21T06:51:52.161Z,100046.11
2018-01-21T06:54:19.947Z,100046.14
2018-01-21T06:56:47.380Z,100060.59
2018-01-21T06:59:14.817Z,100060.07
2018-01-21T07:01:42.281Z,100064.98
2018-01-21T07:04:09.733Z,100064.09
2018-01-21T07:06:37.197Z,100066.73
2018-01-21T07:09:04.645Z,100067.19
2018-01-21T07:11:32.120Z,100065.92
2018-01-21T07:13:59.591Z,100075.14
2018-01-21T07:16:27.044Z,100074.30
2018-01-21T07:18:54.717Z,100078.23
2018-01-21T07:21:22.164Z,100077.34
2018-01-21T07:23:49.608Z,100077.83
2018-01-21T07:26:17.101Z,100087.42
2018-01-21T07:28:44.544Z,100103.14
2018-01-21T07:31:12.206Z,100108.88
2018-01-21T07:33:39.644Z,100117.68
2018-01-21T07:36:07.084Z,100132.58
2018-01-21T07:38:34.540Z,100130.84
2018-01-21T07:41:01.997Z,100139.16
2018-01-21T07:43:29.453Z,100142.69
2018-01-21T07:45:56.892Z,100154.94
2018-01-21T07:48:24.332Z,100161.50
2018-01-21T07:50:51.805Z,100171.12
2018-01-21T07:53:19.241Z,100176.36
2018-01-21T07:55:46.700Z,100191.70
2018-01-21T07:58:14.206Z,100200.02
2018-01-21T08:00:41.641Z,100202.22
2018-01-21T08:03:09.097Z,100210.52
2018-01-21T08:05:36.551Z,100224.08
2018-01-21T08:08:04.253Z,100228.89
2018-01-21T08:10:31.696Z,100233.71
2018-01-21T08:12:59.128Z,100235.91
2018-01-21T08:15:26.588Z,100235.47
2018-01-21T08:17:54.054Z,100236.78
2018-01-21T08:20:21.725Z,100246.84
2018-01-21T08:22:49.201Z,100260.84
2018-01-21T08:25:16.708Z,100261.30
2018-01-21T08:27:44.192Z,100266.11
2018-01-21T08:30:11.636Z,100270.47
2018-01-21T08:32:39.441Z,100284.91
2018-01-21T08:35:12.615Z,100287.98
2018-01-21T08:37:45.917Z,100293.23
2018-01-21T08:43:16.669Z,100304.19
2018-01-21T08:45:44.127Z,100305.50
2018-01-21T08:48:11.581Z,100315.15
2018-01-21T08:50:39.090Z,100315.15
2018-01-21T08:53:06.524Z,100318.22
2018-01-21T08:55:33.984Z,100315.16
2018-01-21T08:58:01.422Z,100324.79
2018-01-21T09:00:29.190Z,100326.95
2018-01-21T09:02:56.628Z,100332.22
2018-01-21T09:05:24.282Z,100333.05
2018-01-21T09:07:51.745Z,100344.03
2018-01-21T09:10:19.197Z,100343.61
2018-01-21T09:12:46.766Z,100350.57
2018-01-21T09:15:14.235Z,100351.89
2018-01-21T09:17:41.673Z,100353.64
2018-01-21T09:20:09.134Z,100358.84
2018-01-21T09:22:36.573Z,100364.91
2018-01-21T09:25:04.253Z,100365.67
2018-01-21T09:27:31.725Z,100369.21
2018-01-21T09:29:59.181Z,100371.36
2018-01-21T09:32:26.642Z,100367.45
2018-01-21T09:34:54.110Z,100372.73
2018-01-21T09:37:21.569Z,100376.22
2018-01-21T09:39:49.029Z,100381.48
2018-01-21T09:42:16.469Z,100389.80
2018-01-21T09:44:43.965Z,100397.84
2018-01-21T09:47:11.409Z,100399.94
2018-01-21T09:49:39.122Z,100402.38
2018-01-21T09:52:06.557Z,100403.68
2018-01-21T09:54:34.049Z,100400.61
2018-01-21T09:57:01.548Z,100401.59
2018-01-21T09:59:28.997Z,100402.93
2018-01-21T10:01:56.608Z,100404.20
2018-01-21T10:04:24.122Z,100411.32
2018-01-21T10:06:51.584Z,100414.83
2018-01-21T10:09:19.041Z,100414.44
2018-01-21T10:11:46.494Z,100415.77
2018-01-21T10:14:13.988Z,100416.67
2018-01-21T10:16:41.479Z,100417.13
2018-01-21T10:19:09.626Z,100425.42
2018-01-21T10:21:37.134Z,100434.09
2018-01-21T10:24:04.568Z,100434.07
2018-01-21T10:26:32.421Z,100437.04
2018-01-21T10:28:59.885Z,100439.17
2018-01-21T10:31:27.330Z,100437.14
2018-01-21T10:33:54.788Z,100440.63
2018-01-21T10:36:22.241Z,100440.63
2018-01-21T10:38:49.757Z,100446.70
2018-01-21T10:41:17.196Z,100452.27
2018-01-21T10:43:44.631Z,100452.76
2018-01-21T10:46:12.091Z,100465.57
2018-01-21T10:48:39.533Z,100469.05
2018-01-21T10:51:07.072Z,100470.63
2018-01-21T10:53:34.581Z,100467.70
2018-01-21T10:56:02.017Z,100478.61
2018-01-21T10:58:29.472Z,100472.78
2018-01-21T11:01:01.933Z,100479.28
2018-01-21T11:03:29.415Z,100474.73
2018-01-21T11:05:56.864Z,100484.52
2018-01-21T11:08:24.397Z,100479.88
2018-01-21T11:10:51.837Z,100483.85
2018-01-21T11:13:19.281Z,100489.16
2018-01-21T11:15:46.740Z,100497.98
2018-01-21T11:18:14.180Z,100500.09
2018-01-21T11:20:41.984Z,100496.98
2018-01-21T11:23:09.421Z,100503.24
2018-01-21T11:25:36.866Z,100516.44
2018-01-21T11:28:04.325Z,100504.38
2018-01-21T11:30:31.761Z,100502.77
2018-01-21T11:32:59.268Z,100508.30
2018-01-21T11:35:26.701Z,100515.09
2018-01-21T11:37:54.141Z,100511.65
2018-01-21T11:40:21.596Z,100508.09
2018-01-21T11:42:49.034Z,100510.04
2018-01-21T11:45:16.501Z,100512.66
2018-01-21T11:47:43.943Z,100510.25
2018-01-21T11:50:11.377Z,100503.01
2018-01-21T11:52:38.837Z,100508.68
2018-01-21T11:55:06.293Z,100509.27
2018-01-21T11:57:33.929Z,100514.93
2018-01-21T12:00:01.365Z,100524.90
2018-01-21T12:02:28.805Z,100522.78
2018-01-21T12:04:56.305Z,100519.67
2018-01-21T12:07:23.737Z,100529.34
2018-01-21T12:09:51.414Z,100522.20
2018-01-21T12:12:19.057Z,100527.97
2018-01-21T12:14:46.509Z,100523.88
2018-01-21T12:17:13.965Z,100524.25
2018-01-21T12:19:41.408Z,100529.05
2018-01-21T12:22:09.017Z,100528.69
2018-01-21T12:24:36.463Z,100518.77
2018-01-21T12:27:03.919Z,100514.98
2018-01-21T12:29:31.377Z,100516.45
2018-01-21T12:31:58.817Z,100515.22
2018-01-21T12:34:26.364Z,100517.40
2018-01-21T12:36:53.820Z,100523.05
2018-01-21T12:39:21.290Z,100528.28
2018-01-21T12:41:48.750Z,100523.38
2018-01-21T12:44:16.193Z,100513.68
2018-01-21T12:46:43.653Z,100520.41
2018-01-21T12:49:11.115Z,100511.91
2018-01-21T12:51:38.553Z,100512.41
2018-01-21T12:54:06.018Z,100511.44
2018-01-21T12:56:33.457Z,100508.75
2018-01-21T12:59:04.150Z,100512.23
2018-01-21T13:01:31.929Z,100509.73
2018-01-21T13:03:59.401Z,100515.11
2018-01-21T13:06:26.858Z,100508.91
2018-01-21T13:08:54.394Z,100512.83
2018-01-21T13:11:21.856Z,100522.63
2018-01-21T13:13:49.335Z,100522.48
2018-01-21T13:16:16.792Z,100530.41
2018-01-21T13:18:44.253Z,100528.70
2018-01-21T13:21:11.706Z,100525.47
2018-01-21T13:23:39.638Z,100525.88
2018-01-21T13:26:07.090Z,100533.67
2018-01-21T13:28:34.527Z,100549.55
2018-01-21T13:31:01.993Z,100543.00
2018-01-21T13:33:29.439Z,100546.08
2018-01-21T13:35:56.948Z,100551.23
2018-01-21T13:38:24.404Z,100558.81
2018-01-21T13:40:51.841Z,100547.64
2018-01-21T13:43:19.312Z,100548.34
2018-01-21T13:45:46.749Z,100549.70
2018-01-21T13:48:14.271Z,100565.55
2018-01-21T13:50:41.699Z,100572.66
2018-01-21T13:53:09.155Z,100563.91
2018-01-21T13:55:36.629Z,100558.97
2018-01-21T13:58:04.069Z,100574.45
2018-01-21T14:00:31.512Z,100581.27
2018-01-21T14:02:58.973Z,100592.46
2018-01-21T14:05:26.417Z,100582.36
2018-01-21T14:07:53.872Z,100584.05
2018-01-21T14:10:21.338Z,100573.44
2018-01-21T14:12:48.772Z,100570.45
2018-01-21T14:15:16.356Z,100583.90
2018-01-21T14:17:43.856Z,100587.00
2018-01-21T14:20:11.301Z,100575.22
2018-01-21T14:22:38.760Z,100576.06
2018-01-21T14:25:06.223Z,100572.25
2018-01-21T14:27:33.683Z,100574.30
2018-01-21T14:30:01.254Z,100583.66
2018-01-21T14:32:28.939Z,100591.13
2018-01-21T14:34:56.364Z,100599.91
2018-01-21T14:37:23.805Z,100600.03
2018-01-21T14:39:51.342Z,100597.84
2018-01-21T14:42:18.785Z,100596.61
2018-01-21T14:44:46.232Z,100597.92
2018-01-21T14:47:13.719Z,100608.05
2018-01-21T14:49:41.168Z,100609.42
2018-01-21T14:52:08.609Z,100609.47
2018-01-21T14:54:36.323Z,100608.48
2018-01-21T14:57:03.756Z,100616.02
2018-01-21T14:59:31.200Z,100612.97
2018-01-21T15:01:58.726Z,100613.52
2018-01-21T15:04:26.194Z,100609.88
2018-01-21T15:06:53.655Z,100617.50
2018-01-21T15:09:21.300Z,100615.77
2018-01-21T15:11:48.744Z,100617.04
2018-01-21T15:14:16.189Z,100615.25
2018-01-21T15:16:44.037Z,100609.89
2018-01-21T15:19:11.497Z,100612.23
2018-01-21T15:21:39.163Z,100622.31
2018-01-21T15:24:06.620Z,100620.59
2018-01-21T15:26:34.098Z,100620.95
2018-01-21T15:29:01.565Z,100623.27
2018-01-21T15:31:29.007Z,100628.55
2018-01-21T15:33:56.518Z,100632.09
2018-01-21T15:36:23.975Z,100637.81
2018-01-21T15:38:51.412Z,100632.55
2018-01-21T15:41:18.917Z,100629.00
2018-01-21T15:43:46.357Z,100625.98
2018-01-21T15:46:13.932Z,100631.25
2018-01-21T15:48:41.421Z,100625.55
2018-01-21T15:51:08.872Z,100632.58
2018-01-21T15:53:36.337Z,100646.22
2018-01-21T15:56:03.809Z,100637.45
2018-01-21T15:58:31.428Z,100645.78
2018-01-21T16:00:58.968Z,100650.18
2018-01-21T16:03:26.421Z,100656.33
2018-01-21T16:05:53.881Z,100647.98
2018-01-21T16:08:21.320Z,100633.48
2018-01-21T16:10:48.805Z,100635.67
2018-01-21T16:13:16.289Z,100640.94
2018-01-21T16:15:43.724Z,100640.03
2018-01-21T16:18:11.181Z,100636.11
2018-01-21T16:20:38.618Z,100635.18
2018-01-21T16:23:06.185Z,100639.57
2018-01-21T16:25:33.677Z,100642.64
2018-01-21T16:28:01.139Z,100647.47
2018-01-21T16:30:28.617Z,100641.77
2018-01-21T16:32:56.076Z,100648.30
2018-01-21T16:35:24.384Z,100640.80
2018-01-21T16:38:03.844Z,100643.92
2018-01-21T16:40:31.424Z,100644.80
2018-01-21T16:42:58.859Z,100640.41
2018-01-21T16:45:26.298Z,100635.59
2018-01-21T16:47:53.753Z,100638.56
2018-01-21T16:50:21.193Z,100635.98
2018-01-21T16:52:48.671Z,100642.52
2018-01-21T16:55:16.180Z,100651.70
2018-01-21T16:57:43.683Z,100656.91
2018-01-21T17:00:11.199Z,100656.91
2018-01-21T17:02:38.646Z,100643.75
2018-01-21T17:05:06.320Z,100644.18
2018-01-21T17:07:33.768Z,100641.08
2018-01-21T17:10:01.206Z,100641.95
2018-01-21T17:12:28.671Z,100641.48
2018-01-21T17:14:56.113Z,100634.05
2018-01-21T17:17:23.749Z,100642.74
2018-01-21T17:19:51.191Z,100633.98
2018-01-21T17:22:18.637Z,100634.41
2018-01-21T17:24:46.093Z,100627.42
2018-01-21T17:27:13.533Z,100626.10
2018-01-21T17:29:41.128Z,100623.41
2018-01-21T17:32:08.586Z,100612.00
2018-01-21T17:34:36.100Z,100613.69
2018-01-21T17:37:03.573Z,100624.16
2018-01-21T17:39:31.081Z,100618.42
2018-01-21T17:41:59.036Z,100612.72
2018-01-21T17:44:26.492Z,100602.55
2018-01-21T17:46:53.960Z,100609.91
2018-01-21T17:49:21.457Z,100608.58
2018-01-21T17:51:48.919Z,100613.83
2018-01-21T17:54:16.521Z,100607.17
2018-01-21T17:56:43.985Z,100603.54
2018-01-21T17:59:11.465Z,100604.84
2018-01-21T18:01:38.992Z,100594.31
2018-01-21T18:04:06.567Z,100590.11
2018-01-21T18:06:34.238Z,100596.28
2018-01-21T18:09:01.732Z,100601.05
2018-01-21T18:11:29.238Z,100597.96
2018-01-21T18:13:56.764Z,100595.45
2018-01-21T18:16:24.252Z,100595.80
2018-01-21T18:18:51.908Z,100595.33
2018-01-21T18:21:19.396Z,100601.48
2018-01-21T18:23:46.869Z,100596.39
2018-01-21T18:26:14.345Z,100594.89
2018-01-21T18:28:41.793Z,100597.71
2018-01-21T18:31:09.436Z,100598.97
2018-01-21T18:33:36.853Z,100598.58
2018-01-21T18:36:04.310Z,100602.79
2018-01-21T18:38:31.765Z,100591.86
2018-01-21T18:40:59.201Z,100586.17
2018-01-21T18:43:26.679Z,100587.56
2018-01-21T18:45:54.174Z,100585.35
2018-01-21T18:48:21.612Z,100571.26
2018-01-21T18:50:49.073Z,100569.52
2018-01-21T18:53:16.509Z,100574.73
2018-01-21T18:55:44.165Z,100569.98
2018-01-21T18:58:11.613Z,100565.24
2018-01-21T19:00:39.049Z,100569.66
2018-01-21T19:03:06.505Z,100560.78
2018-01-21T19:05:33.950Z,100563.39
2018-01-21T19:08:01.794Z,100556.81
2018-01-21T19:10:29.237Z,100548.55
2018-01-21T19:12:56.685Z,100543.73
2018-01-21T19:15:24.192Z,100544.28
2018-01-21T19:17:51.608Z,100546.80
2018-01-21T19:20:19.230Z,100549.44
2018-01-21T19:22:46.669Z,100552.11
2018-01-21T19:25:14.129Z,100549.09
2018-01-21T19:27:41.586Z,100536.91
2018-01-21T19:30:09.027Z,100537.77
2018-01-21T19:32:36.623Z,100544.32
2018-01-21T19:35:04.061Z,100536.80
2018-01-21T19:37:31.507Z,100537.28
2018-01-21T19:40:04.510Z,100532.47
2018-01-21T19:45:40.936Z,100510.13
2018-01-21T19:48:08.377Z,100509.27
2018-01-21T19:50:35.817Z,100511.95
2018-01-21T19:53:03.286Z,100507.58
2018-01-21T19:55:30.737Z,100513.72
2018-01-21T19:57:58.286Z,100507.16
2018-01-21T20:00:25.739Z,100505.91
2018-01-21T20:02:53.177Z,100500.61
2018-01-21T20:05:20.657Z,100502.41
2018-01-21T20:07:48.100Z,100495.91
2018-01-21T20:10:15.579Z,100487.09
2018-01-21T20:12:48.637Z,100471.72
2018-01-21T20:15:16.142Z,100477.86
2018-01-21T20:17:44.238Z,100483.66
2018-01-21T20:20:11.673Z,100470.47
2018-01-21T20:22:39.129Z,100462.55
2018-01-21T20:25:06.571Z,100455.54
2018-01-21T20:27:34.420Z,100445.02
2018-01-21T20:30:02.747Z,100443.71
2018-01-21T20:32:30.182Z,100443.77
2018-01-21T20:34:57.644Z,100444.16
2018-01-21T20:37:25.085Z,100445.04
2018-01-21T20:39:52.684Z,100426.27
2018-01-21T20:42:20.081Z,100419.20
2018-01-21T20:44:47.536Z,100424.89
2018-01-21T20:47:14.993Z,100427.09
2018-01-21T20:49:42.433Z,100420.09
2018-01-21T20:52:15.725Z,100414.01
2018-01-21T20:54:43.165Z,100413.14
2018-01-21T20:57:10.702Z,100414.06
2018-01-21T20:59:38.172Z,100414.09
2018-01-21T21:02:05.615Z,100406.22
2018-01-21T21:04:33.328Z,100402.28
2018-01-21T21:07:00.770Z,100387.39
2018-01-21T21:09:28.212Z,100372.51
2018-01-21T21:11:55.689Z,100359.81
2018-01-21T21:14:23.126Z,100365.53
2018-01-21T21:16:50.624Z,100358.52
2018-01-21T21:19:18.066Z,100356.77
2018-01-21T21:21:45.550Z,100347.12
2018-01-21T21:24:13.021Z,100341.44
2018-01-21T21:26:40.469Z,100330.94
2018-01-21T21:29:08.307Z,100330.05
2018-01-21T21:31:35.749Z,100323.49
2018-01-21T21:34:03.413Z,100321.73
2018-01-21T21:36:30.877Z,100315.17
2018-01-21T21:38:58.324Z,100316.45
2018-01-21T21:41:25.998Z,100319.97
2018-01-21T21:43:53.433Z,100326.55
2018-01-21T21:46:21.351Z,100337.50
2018-01-21T21:48:48.809Z,100330.03
2018-01-21T21:51:16.245Z,100321.28
2018-01-21T21:53:43.800Z,100306.39
2018-01-21T21:56:11.240Z,100311.20
2018-01-21T21:58:38.680Z,100302.44
2018-01-21T22:01:06.145Z,100306.82
2018-01-21T22:03:33.581Z,100302.47
2018-01-21T22:06:01.298Z,100300.70
2018-01-21T22:08:28.744Z,100299.39
2018-01-21T22:10:56.177Z,100294.13
2018-01-21T22:13:23.644Z,100296.77
2018-01-21T22:15:51.093Z,100290.17
2018-01-21T22:18:18.769Z,100287.56
2018-01-21T22:20:46.222Z,100282.28
2018-01-21T22:23:13.681Z,100277.91
2018-01-21T22:25:41.189Z,100284.47
2018-01-21T22:28:08.677Z,100274.82
2018-01-21T22:30:36.143Z,100271.30
2018-01-21T22:33:03.596Z,100269.12
2018-01-21T22:35:31.044Z,100256.44
2018-01-21T22:37:58.500Z,100249.86
2018-01-21T22:40:25.960Z,100252.06
2018-01-21T22:42:53.534Z,100246.78
2018-01-21T22:45:20.973Z,100238.03
2018-01-21T22:47:48.405Z,100233.62
2018-01-21T22:50:15.864Z,100233.64
2018-01-21T22:52:43.301Z,100228.81
2018-01-21T22:55:11.032Z,100223.14
2018-01-21T22:57:38.494Z,100220.93
2018-01-21T23:00:05.933Z,100212.60
2018-01-21T23:02:33.429Z,100203.88
2018-01-21T23:05:00.877Z,100203.86
2018-01-21T23:07:28.332Z,100201.69
2018-01-21T23:09:55.814Z,100187.22
2018-01-21T23:12:23.270Z,100188.09
2018-01-21T23:14:50.734Z,100185.04
2018-01-21T23:17:18.196Z,100190.77
2018-01-21T23:19:45.664Z,100191.23
2018-01-21T23:22:13.102Z,100186.88
2018-01-21T23:24:40.562Z,100185.14
2018-01-21T23:27:08.017Z,100190.83
2018-01-21T23:29:35.452Z,100191.24
2018-01-21T23:32:03.053Z,100177.25
2018-01-21T23:34:30.486Z,100175.48
2018-01-21T23:36:57.917Z,100166.31
2018-01-21T23:39:25.373Z,100153.17
2018-01-21T23:41:52.832Z,100153.20
2018-01-21T23:44:20.311Z,100148.81
2018-01-21T23:46:47.744Z,100146.16
2018-01-21T23:49:15.220Z,100139.61
2018-01-21T23:51:42.676Z,100141.77
2018-01-21T23:54:10.108Z,100123.84
2018-01-21T23:56:37.572Z,100122.51
2018-01-21T23:59:05.020Z,100112.48
